createdAt,value
2019-04-09T00:00:38.068Z,4.00
2019-04-09T00:01:37.184Z,8.00
2019-04-09T00:02:38.140Z,4.00
2019-04-09T00:03:38.088Z,4.00
2019-04-09T00:04:37.734Z,4.00
2019-04-09T00:05:37.964Z,8.00
2019-04-09T00:06:37.379Z,4.00
2019-04-09T00:07:37.428Z,8.00
2019-04-09T00:08:37.947Z,4.00
2019-04-09T00:09:37.512Z,4.00
2019-04-09T00:10:37.568Z,4.00
2019-04-09T00:11:38.099Z,4.00
2019-04-09T00:12:37.979Z,4.00
2019-04-09T00:13:38.225Z,4.00
2019-04-09T00:14:37.749Z,4.00
2019-04-09T00:15:38.133Z,4.00
2019-04-09T00:16:37.824Z,4.00
2019-04-09T00:17:38.061Z,4.00
2019-04-09T00:18:38.131Z,8.00
2019-04-09T00:19:37.969Z,4.00
2019-04-09T00:20:37.999Z,4.00
2019-04-09T00:21:38.056Z,8.00
2019-04-09T00:22:39.121Z,8.00
2019-04-09T00:23:38.367Z,8.00
2019-04-09T00:24:39.206Z,8.00
2019-04-09T00:25:39.157Z,8.00
2019-04-09T00:26:48.424Z,8.00
2019-04-09T00:27:38.923Z,8.00
2019-04-09T00:28:38.354Z,8.00
2019-04-09T00:29:38.370Z,8.00
2019-04-09T00:30:38.431Z,8.00
2019-04-09T00:31:38.908Z,8.00
2019-04-09T00:32:38.946Z,8.00
2019-04-09T00:33:38.550Z,4.00
2019-04-09T00:34:38.617Z,4.00
2019-04-09T00:35:38.810Z,4.00
2019-04-09T00:36:38.686Z,4.00
2019-04-09T00:37:38.735Z,4.00
2019-04-09T00:38:39.047Z,4.00
2019-04-09T00:39:39.030Z,4.00
2019-04-09T00:40:38.885Z,4.00
2019-04-09T00:41:39.952Z,4.00
2019-04-09T00:42:38.961Z,4.00
2019-04-09T00:43:39.300Z,4.00
2019-04-09T00:44:39.123Z,4.00
2019-04-09T00:45:39.076Z,4.00
2019-04-09T00:46:39.127Z,4.00
2019-04-09T00:47:39.172Z,8.00
2019-04-09T00:48:40.090Z,8.00
2019-04-09T00:49:39.252Z,8.00
2019-04-09T00:50:39.482Z,8.00
2019-04-09T00:51:39.777Z,8.00
2019-04-09T00:52:39.555Z,8.00
2019-04-09T00:53:41.097Z,8.00
2019-04-09T00:54:39.559Z,8.00
2019-04-09T00:55:39.529Z,8.00
2019-04-09T00:56:39.578Z,8.00
2019-04-09T00:57:39.630Z,8.00
2019-04-09T00:58:39.666Z,8.00
2019-04-09T00:59:40.056Z,8.00
2019-04-09T01:00:42.106Z,8.00
2019-04-09T01:01:39.799Z,8.00
2019-04-09T01:02:40.869Z,8.00
2019-04-09T01:03:40.927Z,4.00
2019-04-09T01:04:40.068Z,4.00
2019-04-09T01:05:39.970Z,4.00
2019-04-09T01:06:39.995Z,4.00
2019-04-09T01:07:40.044Z,4.00
2019-04-09T01:08:40.108Z,4.00
2019-04-09T01:09:40.142Z,4.00
2019-04-09T01:10:40.903Z,4.00
2019-04-09T01:11:40.216Z,4.00
2019-04-09T01:12:40.979Z,4.00
2019-04-09T01:13:40.637Z,4.00
2019-04-09T01:14:40.352Z,4.00
2019-04-09T01:15:40.845Z,4.00
2019-04-09T01:16:40.453Z,4.00
2019-04-09T01:17:40.499Z,4.00
2019-04-09T01:18:40.545Z,4.00
2019-04-09T01:19:40.573Z,4.00
2019-04-09T01:20:40.640Z,4.00
2019-04-09T01:21:40.671Z,4.00
2019-04-09T01:22:41.384Z,4.00
2019-04-09T01:23:40.743Z,4.00
2019-04-09T01:24:41.734Z,4.00
2019-04-09T01:25:41.388Z,4.00
2019-04-09T01:26:40.947Z,4.00
2019-04-09T01:27:41.504Z,4.00
2019-04-09T01:28:40.965Z,4.00
2019-04-09T01:29:41.014Z,4.00
2019-04-09T01:30:41.056Z,4.00
2019-04-09T01:31:41.920Z,4.00
2019-04-09T01:32:41.760Z,4.00
2019-04-09T01:33:41.195Z,4.00
2019-04-09T01:34:41.228Z,4.00
2019-04-09T01:35:41.268Z,4.00
2019-04-09T01:36:41.709Z,4.00
2019-04-09T01:37:41.481Z,4.00
2019-04-09T01:38:41.402Z,4.00
2019-04-09T01:39:41.456Z,4.00
2019-04-09T01:40:41.845Z,0.00
2019-04-09T01:41:41.906Z,0.00
2019-04-09T01:42:41.608Z,0.00
2019-04-09T01:43:41.649Z,0.00
2019-04-09T01:44:41.657Z,0.00
2019-04-09T01:45:41.732Z,0.00
2019-04-09T01:46:41.746Z,0.00
2019-04-09T01:47:41.850Z,0.00
2019-04-09T01:48:42.715Z,0.00
2019-04-09T01:49:41.900Z,0.00
2019-04-09T01:50:44.523Z,0.00
2019-04-09T01:51:42.872Z,0.00
2019-04-09T01:52:42.708Z,0.00
2019-04-09T01:53:42.735Z,0.00
2019-04-09T01:54:42.115Z,0.00
2019-04-09T01:55:42.161Z,0.00
2019-04-09T01:56:43.016Z,0.00
2019-04-09T01:57:42.246Z,0.00
2019-04-09T01:58:42.305Z,0.00
2019-04-09T01:59:42.778Z,0.00
2019-04-09T02:00:42.677Z,0.00
2019-04-09T02:01:42.412Z,0.00
2019-04-09T02:02:42.472Z,0.00
2019-04-09T02:03:43.367Z,0.00
2019-04-09T02:04:42.568Z,0.00
2019-04-09T02:05:43.491Z,0.00
2019-04-09T02:06:43.353Z,0.00
2019-04-09T02:07:43.286Z,0.00
2019-04-09T02:08:42.745Z,0.00
2019-04-09T02:09:42.764Z,0.00
2019-04-09T02:10:43.136Z,0.00
2019-04-09T02:11:42.878Z,0.00
2019-04-09T02:12:42.914Z,0.00
2019-04-09T02:13:42.977Z,0.00
2019-04-09T02:14:42.979Z,0.00
2019-04-09T02:15:43.550Z,0.00
2019-04-09T02:16:43.341Z,0.00
2019-04-09T02:17:43.143Z,0.00
2019-04-09T02:18:43.181Z,0.00
2019-04-09T02:19:43.636Z,0.00
2019-04-09T02:20:43.610Z,0.00
2019-04-09T02:21:43.325Z,0.00
2019-04-09T02:22:43.353Z,0.00
2019-04-09T02:23:43.392Z,0.00
2019-04-09T02:24:43.431Z,0.00
2019-04-09T02:25:43.533Z,0.00
2019-04-09T02:26:43.533Z,0.00
2019-04-09T02:27:46.160Z,0.00
2019-04-09T02:28:44.078Z,0.00
2019-04-09T02:29:43.699Z,0.00
2019-04-09T02:30:43.908Z,0.00
2019-04-09T02:31:44.817Z,0.00
2019-04-09T02:32:44.693Z,0.00
2019-04-09T02:33:43.873Z,0.00
2019-04-09T02:34:43.886Z,0.00
2019-04-09T02:35:45.287Z,0.00
2019-04-09T02:36:45.706Z,0.00
2019-04-09T02:37:45.249Z,0.00
2019-04-09T02:38:44.107Z,0.00
2019-04-09T02:39:44.747Z,0.00
2019-04-09T02:40:44.485Z,0.00
2019-04-09T02:41:44.191Z,0.00
2019-04-09T02:42:44.241Z,0.00
2019-04-09T02:43:44.826Z,0.00
2019-04-09T02:44:44.322Z,0.00
2019-04-09T02:45:45.013Z,0.00
2019-04-09T02:46:44.996Z,0.00
2019-04-09T02:47:44.682Z,0.00
2019-04-09T02:48:44.482Z,0.00
2019-04-09T02:49:45.570Z,0.00
2019-04-09T02:50:44.736Z,0.00
2019-04-09T02:51:44.624Z,0.00
2019-04-09T02:52:45.530Z,0.00
2019-04-09T02:53:44.719Z,0.00
2019-04-09T02:54:44.771Z,0.00
2019-04-09T02:55:44.795Z,0.00
2019-04-09T02:56:45.142Z,0.00
2019-04-09T02:57:53.342Z,0.00
2019-04-09T02:58:45.263Z,0.00
2019-04-09T02:59:45.002Z,0.00
2019-04-09T03:00:45.040Z,0.00
2019-04-09T03:01:45.082Z,0.00
2019-04-09T03:02:46.147Z,0.00
2019-04-09T03:03:46.168Z,0.00
2019-04-09T03:04:45.226Z,0.00
2019-04-09T03:05:45.251Z,0.00
2019-04-09T03:06:45.336Z,0.00
2019-04-09T03:07:46.091Z,0.00
2019-04-09T03:08:45.752Z,0.00
2019-04-09T03:09:45.412Z,0.00
2019-04-09T03:10:45.466Z,0.00
2019-04-09T03:11:45.707Z,0.00
2019-04-09T03:12:45.622Z,0.00
2019-04-09T03:13:45.599Z,0.00
2019-04-09T03:14:45.672Z,0.00
2019-04-09T03:15:46.565Z,0.00
2019-04-09T03:16:46.497Z,0.00
2019-04-09T03:17:46.380Z,0.00
2019-04-09T03:18:45.835Z,0.00
2019-04-09T03:19:45.872Z,0.00
2019-04-09T03:20:45.926Z,0.00
2019-04-09T03:21:46.280Z,0.00
2019-04-09T03:22:46.190Z,0.00
2019-04-09T03:23:46.032Z,0.00
2019-04-09T03:24:46.093Z,0.00
2019-04-09T03:25:46.565Z,0.00
2019-04-09T03:26:47.287Z,0.00
2019-04-09T03:27:46.219Z,0.00
2019-04-09T03:28:46.275Z,0.00
2019-04-09T03:29:46.983Z,0.00
2019-04-09T03:30:46.759Z,0.00
2019-04-09T03:31:47.858Z,0.00
2019-04-09T03:32:47.209Z,0.00
2019-04-09T03:33:46.510Z,0.00
2019-04-09T03:34:48.203Z,0.00
2019-04-09T03:35:46.576Z,0.00
2019-04-09T03:36:46.667Z,0.00
2019-04-09T03:37:46.668Z,0.00
2019-04-09T03:38:46.772Z,0.00
2019-04-09T03:39:46.964Z,0.00
2019-04-09T03:40:46.800Z,0.00
2019-04-09T03:41:47.557Z,0.00
2019-04-09T03:42:46.874Z,0.00
2019-04-09T03:43:46.939Z,0.00
2019-04-09T03:44:46.979Z,0.00
2019-04-09T03:45:47.208Z,0.00
2019-04-09T03:46:47.083Z,0.00
2019-04-09T03:47:47.097Z,0.00
2019-04-09T03:48:48.913Z,0.00
2019-04-09T03:49:48.202Z,0.00
2019-04-09T03:50:48.226Z,0.00
2019-04-09T03:51:47.268Z,0.00
2019-04-09T03:52:47.670Z,0.00
2019-04-09T03:53:47.770Z,0.00
2019-04-09T03:54:47.410Z,0.00
2019-04-09T03:55:47.498Z,0.00
2019-04-09T03:56:48.475Z,0.00
2019-04-09T03:57:48.475Z,0.00
2019-04-09T03:58:48.359Z,0.00
2019-04-09T03:59:47.801Z,0.00
2019-04-09T04:00:47.688Z,0.00
2019-04-09T04:01:48.793Z,0.00
2019-04-09T04:02:48.848Z,0.00
2019-04-09T04:03:48.208Z,0.00
2019-04-09T04:04:48.242Z,0.00
2019-04-09T04:05:47.926Z,0.00
2019-04-09T04:06:47.959Z,0.00
2019-04-09T04:07:48.407Z,0.00
2019-04-09T04:08:48.037Z,0.00
2019-04-09T04:09:48.099Z,0.00
2019-04-09T04:10:48.130Z,0.00
2019-04-09T04:11:48.186Z,0.00
2019-04-09T04:12:48.212Z,0.00
2019-04-09T04:13:48.363Z,0.00
2019-04-09T04:14:50.039Z,0.00
2019-04-09T04:15:48.827Z,0.00
2019-04-09T04:16:48.770Z,0.00
2019-04-09T04:17:48.921Z,0.00
2019-04-09T04:18:48.490Z,0.00
2019-04-09T04:19:48.510Z,0.00
2019-04-09T04:20:49.481Z,0.00
2019-04-09T04:21:48.620Z,0.00
2019-04-09T04:22:49.578Z,0.00
2019-04-09T04:23:49.552Z,0.00
2019-04-09T04:24:49.490Z,0.00
2019-04-09T04:25:48.812Z,0.00
2019-04-09T04:26:49.023Z,0.00
2019-04-09T04:27:48.906Z,0.00
2019-04-09T04:28:48.958Z,0.00
2019-04-09T04:29:50.090Z,0.00
2019-04-09T04:30:49.011Z,0.00
2019-04-09T04:31:49.043Z,0.00
2019-04-09T04:32:49.818Z,0.00
2019-04-09T04:33:49.824Z,0.00
2019-04-09T04:34:49.177Z,0.00
2019-04-09T04:35:49.251Z,0.00
2019-04-09T04:36:50.039Z,0.00
2019-04-09T04:37:49.488Z,0.00
2019-04-09T04:38:49.709Z,0.00
2019-04-09T04:39:49.430Z,0.00
2019-04-09T04:40:49.707Z,0.00
2019-04-09T04:41:49.489Z,0.00
2019-04-09T04:42:50.136Z,0.00
2019-04-09T04:43:49.875Z,0.00
2019-04-09T04:44:49.659Z,0.00
2019-04-09T04:45:49.682Z,0.00
2019-04-09T04:46:50.626Z,0.00
2019-04-09T04:47:50.655Z,0.00
2019-04-09T04:48:49.815Z,0.00
2019-04-09T04:49:49.885Z,0.00
2019-04-09T04:50:50.202Z,0.00
2019-04-09T04:51:49.987Z,0.00
2019-04-09T04:52:50.299Z,0.00
2019-04-09T04:53:50.734Z,0.00
2019-04-09T04:54:50.397Z,0.00
2019-04-09T04:55:50.904Z,0.00
2019-04-09T04:56:50.232Z,0.00
2019-04-09T04:57:50.218Z,0.00
2019-04-09T04:58:50.747Z,0.00
2019-04-09T04:59:50.624Z,0.00
2019-04-09T05:00:50.356Z,0.00
2019-04-09T05:01:50.649Z,0.00
2019-04-09T05:02:51.337Z,0.00
2019-04-09T05:03:50.832Z,0.00
2019-04-09T05:04:52.539Z,0.00
2019-04-09T05:05:51.348Z,0.00
2019-04-09T05:06:50.625Z,0.00
2019-04-09T05:07:50.693Z,0.00
2019-04-09T05:08:50.719Z,0.00
2019-04-09T05:09:50.935Z,0.00
2019-04-09T05:10:51.869Z,0.00
2019-04-09T05:11:50.855Z,0.00
2019-04-09T05:12:51.254Z,0.00
2019-04-09T05:13:50.955Z,0.00
2019-04-09T05:14:50.982Z,0.00
2019-04-09T05:15:52.057Z,0.00
2019-04-09T05:16:53.391Z,0.00
2019-04-09T05:17:51.123Z,0.00
2019-04-09T05:18:51.422Z,0.00
2019-04-09T05:19:51.182Z,0.00
2019-04-09T05:20:51.360Z,0.00
2019-04-09T05:21:51.297Z,0.00
2019-04-09T05:22:51.357Z,0.00
2019-04-09T05:23:52.049Z,0.00
2019-04-09T05:24:51.426Z,0.00
2019-04-09T05:25:51.619Z,0.00
2019-04-09T05:26:52.602Z,0.00
2019-04-09T05:27:51.572Z,0.00
2019-04-09T05:29:00.481Z,0.00
2019-04-09T05:29:52.031Z,0.00
2019-04-09T05:30:52.659Z,0.00
2019-04-09T05:31:51.733Z,0.00
2019-04-09T05:32:52.131Z,0.00
2019-04-09T05:33:51.827Z,0.00
2019-04-09T05:34:51.876Z,0.00
2019-04-09T05:35:51.926Z,0.00
2019-04-09T05:36:52.061Z,0.00
2019-04-09T05:37:52.003Z,0.00
2019-04-09T05:38:52.062Z,0.00
2019-04-09T05:39:52.645Z,0.00
2019-04-09T05:40:53.072Z,0.00
2019-04-09T05:41:52.324Z,0.00
2019-04-09T05:42:52.227Z,0.00
2019-04-09T05:43:52.472Z,0.00
2019-04-09T05:44:52.362Z,0.00
2019-04-09T05:45:52.378Z,0.00
2019-04-09T05:46:52.421Z,0.00
2019-04-09T05:47:52.844Z,0.00
2019-04-09T05:48:52.911Z,0.00
2019-04-09T05:49:52.582Z,0.00
2019-04-09T05:50:52.580Z,0.00
2019-04-09T05:51:52.951Z,0.00
2019-04-09T05:52:53.363Z,0.00
2019-04-09T05:53:53.270Z,0.00
2019-04-09T05:54:52.840Z,0.00
2019-04-09T05:55:53.650Z,0.00
2019-04-09T05:56:52.860Z,0.00
2019-04-09T05:57:53.047Z,0.00
2019-04-09T05:59:01.347Z,0.00
2019-04-09T05:59:53.357Z,0.00
2019-04-09T06:00:53.054Z,0.00
2019-04-09T06:01:53.095Z,0.00
2019-04-09T06:02:53.524Z,0.00
2019-04-09T06:03:53.506Z,0.00
2019-04-09T06:04:53.214Z,0.00
2019-04-09T06:05:53.370Z,0.00
2019-04-09T06:06:54.311Z,0.00
2019-04-09T06:07:53.504Z,0.00
2019-04-09T06:08:53.395Z,0.00
2019-04-09T06:09:53.499Z,0.00
2019-04-09T06:10:53.670Z,0.00
2019-04-09T06:11:53.516Z,0.00
2019-04-09T06:12:53.576Z,0.00
2019-04-09T06:13:53.788Z,0.00
2019-04-09T06:14:54.533Z,0.00
2019-04-09T06:15:53.720Z,0.00
2019-04-09T06:16:54.708Z,0.00
2019-04-09T06:17:54.032Z,0.00
2019-04-09T06:18:54.513Z,0.00
2019-04-09T06:19:54.641Z,0.00
2019-04-09T06:20:54.204Z,0.00
2019-04-09T06:21:54.989Z,0.00
2019-04-09T06:22:54.027Z,0.00
2019-04-09T06:23:54.304Z,0.00
2019-04-09T06:24:54.169Z,0.00
2019-04-09T06:25:54.171Z,0.00
2019-04-09T06:26:55.632Z,0.00
2019-04-09T06:27:55.305Z,0.00
2019-04-09T06:28:54.722Z,0.00
2019-04-09T06:29:54.342Z,0.00
2019-04-09T06:30:54.383Z,0.00
2019-04-09T06:31:55.660Z,0.00
2019-04-09T06:32:55.330Z,0.00
2019-04-09T06:33:55.117Z,0.00
2019-04-09T06:34:54.561Z,0.00
2019-04-09T06:35:55.459Z,0.00
2019-04-09T06:36:54.685Z,0.00
2019-04-09T06:37:54.679Z,0.00
2019-04-09T06:38:54.713Z,0.00
2019-04-09T06:39:54.883Z,0.00
2019-04-09T06:40:54.974Z,0.00
2019-04-09T06:41:55.430Z,0.00
2019-04-09T06:42:54.914Z,0.00
2019-04-09T06:43:54.973Z,0.00
2019-04-09T06:44:55.002Z,0.00
2019-04-09T06:45:55.552Z,0.00
2019-04-09T06:46:56.035Z,0.00
2019-04-09T06:47:55.275Z,0.00
2019-04-09T06:48:55.557Z,0.00
2019-04-09T06:49:55.241Z,0.00
2019-04-09T06:50:55.279Z,0.00
2019-04-09T06:51:55.778Z,0.00
2019-04-09T06:52:55.365Z,0.00
2019-04-09T06:53:55.468Z,0.00
2019-04-09T06:54:59.533Z,0.00
2019-04-09T06:55:55.544Z,0.00
2019-04-09T06:56:55.540Z,0.00
2019-04-09T06:57:56.117Z,0.00
2019-04-09T06:58:55.668Z,0.00
2019-04-09T06:59:56.863Z,0.00
2019-04-09T07:00:56.242Z,0.00
2019-04-09T07:01:55.758Z,0.00
2019-04-09T07:02:55.833Z,0.00
2019-04-09T07:03:55.894Z,0.00
2019-04-09T07:04:56.466Z,0.00
2019-04-09T07:05:58.124Z,0.00
2019-04-09T07:06:55.980Z,0.00
2019-04-09T07:07:56.025Z,0.00
2019-04-09T07:08:56.070Z,0.00
2019-04-09T07:09:56.153Z,0.00
2019-04-09T07:11:09.081Z,0.00
2019-04-09T07:11:56.208Z,0.00
2019-04-09T07:12:57.551Z,0.00
2019-04-09T07:13:56.293Z,0.00
2019-04-09T07:14:57.446Z,0.00
2019-04-09T07:15:56.963Z,0.00
2019-04-09T07:16:56.460Z,0.00
2019-04-09T07:17:56.518Z,0.00
2019-04-09T07:18:56.505Z,0.00
2019-04-09T07:19:56.959Z,0.00
2019-04-09T07:20:57.283Z,0.00
2019-04-09T07:21:57.042Z,0.00
2019-04-09T07:22:57.463Z,0.00
2019-04-09T07:23:56.748Z,0.00
2019-04-09T07:24:56.803Z,0.00
2019-04-09T07:25:56.820Z,0.00
2019-04-09T07:26:58.129Z,0.00
2019-04-09T07:27:56.911Z,0.00
2019-04-09T07:28:59.552Z,0.00
2019-04-09T07:30:01.660Z,0.00
2019-04-09T07:30:57.553Z,0.00
2019-04-09T07:31:59.717Z,0.00
2019-04-09T07:32:57.124Z,0.00
2019-04-09T07:33:57.262Z,0.00
2019-04-09T07:34:57.981Z,0.00
2019-04-09T07:36:01.872Z,0.00
2019-04-09T07:36:58.320Z,0.00
2019-04-09T07:37:57.378Z,0.00
2019-04-09T07:38:59.167Z,0.00
2019-04-09T07:40:00.607Z,0.00
2019-04-09T07:40:57.498Z,0.00
2019-04-09T07:41:57.553Z,0.00
2019-04-09T07:42:57.652Z,0.00
2019-04-09T07:43:59.913Z,0.00
2019-04-09T07:45:02.577Z,0.00
2019-04-09T07:45:58.041Z,0.00
2019-04-09T07:46:58.573Z,0.00
2019-04-09T07:47:58.669Z,0.00
2019-04-09T07:49:00.189Z,0.00
2019-04-09T07:50:00.227Z,0.00
2019-04-09T07:50:58.845Z,0.00
2019-04-09T07:51:58.973Z,0.00
2019-04-09T07:53:00.968Z,0.00
2019-04-09T07:54:02.217Z,0.00
2019-04-09T07:54:58.389Z,0.00
2019-04-09T07:55:59.789Z,0.00
2019-04-09T07:57:02.168Z,0.00
2019-04-09T07:57:58.919Z,0.00
2019-04-09T07:58:58.296Z,0.00
2019-04-09T08:00:06.359Z,0.00
2019-04-09T08:00:58.390Z,0.00
2019-04-09T08:01:58.739Z,0.00
2019-04-09T08:02:59.067Z,0.00
2019-04-09T08:04:01.842Z,0.00
2019-04-09T08:04:58.573Z,0.00
2019-04-09T08:05:58.635Z,0.00
2019-04-09T08:07:02.297Z,0.00
2019-04-09T08:08:00.890Z,0.00
2019-04-09T08:08:58.746Z,0.00
2019-04-09T08:09:59.732Z,0.00
2019-04-09T08:10:59.694Z,0.00
2019-04-09T08:11:58.911Z,0.00
2019-04-09T08:12:58.922Z,0.00
2019-04-09T08:13:59.560Z,0.00
2019-04-09T08:15:01.607Z,0.00
2019-04-09T08:15:59.950Z,0.00
2019-04-09T08:16:59.091Z,0.00
2019-04-09T08:18:07.300Z,0.00
2019-04-09T08:18:59.763Z,0.00
2019-04-09T08:19:59.214Z,0.00
2019-04-09T08:21:01.163Z,0.00
2019-04-09T08:21:59.299Z,0.00
2019-04-09T08:22:59.376Z,0.00
2019-04-09T08:23:59.808Z,0.00
2019-04-09T08:25:00.460Z,0.00
2019-04-09T08:26:03.320Z,0.00
2019-04-09T08:26:59.601Z,0.00
2019-04-09T08:27:59.592Z,0.00
2019-04-09T08:28:59.635Z,0.00
2019-04-09T08:30:14.534Z,0.00
2019-04-09T08:30:59.732Z,0.00
2019-04-09T08:32:06.996Z,0.00
2019-04-09T08:33:00.092Z,0.00
2019-04-09T08:34:00.567Z,0.00
2019-04-09T08:35:02.229Z,0.00
2019-04-09T08:36:02.188Z,0.00
2019-04-09T08:37:00.904Z,0.00
2019-04-09T08:38:01.236Z,0.00
2019-04-09T08:39:03.517Z,0.00
2019-04-09T08:40:00.125Z,0.00
2019-04-09T08:41:00.985Z,0.00
2019-04-09T08:42:00.335Z,0.00
2019-04-09T08:43:04.642Z,0.00
2019-04-09T08:44:05.099Z,0.00
2019-04-09T08:45:00.339Z,0.00
2019-04-09T08:46:00.364Z,0.00
2019-04-09T08:47:02.022Z,0.00
2019-04-09T08:48:01.259Z,0.00
2019-04-09T08:49:00.500Z,0.00
2019-04-09T08:50:01.292Z,0.00
2019-04-09T08:51:03.078Z,0.00
2019-04-09T08:52:00.660Z,0.00
2019-04-09T08:53:00.698Z,0.00
2019-04-09T08:54:00.748Z,0.00
2019-04-09T08:55:01.454Z,0.00
2019-04-09T08:56:06.160Z,0.00
2019-04-09T08:57:02.006Z,0.00
2019-04-09T08:58:01.312Z,0.00
2019-04-09T08:59:01.011Z,0.00
2019-04-09T09:00:01.799Z,4.00
2019-04-09T09:02:14.554Z,4.00
2019-04-09T09:03:01.229Z,8.00
2019-04-09T09:04:07.697Z,8.00
2019-04-09T09:05:09.126Z,12.00
2019-04-09T09:06:04.396Z,16.00
2019-04-09T09:07:01.361Z,16.00
2019-04-09T09:08:04.505Z,20.00
2019-04-09T09:09:01.430Z,24.00
2019-04-09T09:10:01.876Z,32.00
2019-04-09T09:11:02.069Z,32.00
2019-04-09T09:12:05.656Z,36.00
2019-04-09T09:13:01.578Z,36.00
2019-04-09T09:14:02.298Z,44.00
2019-04-09T09:15:01.660Z,60.00
2019-04-09T09:16:01.682Z,72.00
2019-04-09T09:17:05.803Z,132.00
2019-04-09T09:18:01.773Z,200.00
2019-04-09T09:19:02.326Z,252.00
2019-04-09T09:20:03.853Z,280.00
2019-04-09T09:21:13.061Z,304.00
2019-04-09T09:22:04.272Z,312.00
2019-04-09T09:23:02.537Z,332.00
2019-04-09T09:24:02.103Z,360.00
2019-04-09T09:25:02.197Z,368.00
2019-04-09T09:26:05.325Z,452.00
2019-04-09T09:27:02.367Z,552.00
2019-04-09T09:28:04.238Z,616.00
2019-04-09T09:29:02.263Z,680.00
2019-04-09T09:30:02.315Z,804.00
2019-04-09T09:31:11.659Z,908.00
2019-04-09T09:32:04.033Z,936.00
2019-04-09T09:33:06.720Z,928.00
2019-04-09T09:34:03.175Z,924.00
2019-04-09T09:35:03.636Z,1044.00
2019-04-09T09:36:07.057Z,1312.00
2019-04-09T09:37:03.806Z,1584.00
2019-04-09T09:38:02.817Z,1892.00
2019-04-09T09:39:04.108Z,2348.00
2019-04-09T09:40:03.039Z,2600.00
2019-04-09T09:41:05.776Z,2672.00
2019-04-09T09:42:03.275Z,2692.00
2019-04-09T09:43:02.895Z,2940.00
2019-04-09T09:44:02.965Z,3052.00
2019-04-09T09:45:04.201Z,3048.00
2019-04-09T09:46:03.625Z,2928.00
2019-04-09T09:47:03.070Z,2776.00
2019-04-09T09:48:03.117Z,2380.00
2019-04-09T09:49:04.133Z,2196.00
2019-04-09T09:50:07.011Z,2180.00
2019-04-09T09:51:03.445Z,2412.00
2019-04-09T09:52:03.315Z,2592.00
2019-04-09T09:53:04.737Z,2356.00
2019-04-09T09:54:06.818Z,2088.00
2019-04-09T09:55:04.396Z,1668.00
2019-04-09T09:56:04.826Z,1460.00
2019-04-09T09:57:06.033Z,1576.00
2019-04-09T09:58:03.575Z,1660.00
2019-04-09T09:59:04.790Z,1648.00
2019-04-09T10:00:06.026Z,1708.00
2019-04-09T10:01:11.086Z,2024.00
2019-04-09T10:02:05.510Z,2672.00
2019-04-09T10:03:06.576Z,3120.00
2019-04-09T10:04:04.873Z,3132.00
2019-04-09T10:05:03.885Z,3020.00
2019-04-09T10:06:12.545Z,3180.00
2019-04-09T10:07:04.361Z,3576.00
2019-04-09T10:08:07.763Z,3480.00
2019-04-09T10:09:04.062Z,3488.00
2019-04-09T10:10:05.046Z,3664.00
2019-04-09T10:11:04.799Z,3836.00
2019-04-09T10:12:08.949Z,3904.00
2019-04-09T10:13:04.958Z,3956.00
2019-04-09T10:14:04.312Z,3872.00
2019-04-09T10:15:07.101Z,3848.00
2019-04-09T10:16:04.800Z,4384.00
2019-04-09T10:17:04.448Z,4776.00
2019-04-09T10:18:05.181Z,5092.00
2019-04-09T10:19:11.658Z,5304.00
2019-04-09T10:20:05.499Z,5108.00
2019-04-09T10:21:04.692Z,4896.00
2019-04-09T10:22:04.757Z,4988.00
2019-04-09T10:23:04.817Z,5432.00
2019-04-09T10:24:09.214Z,6428.00
2019-04-09T10:25:05.797Z,8468.00
2019-04-09T10:26:06.018Z,9360.00
2019-04-09T10:27:09.771Z,8180.00
2019-04-09T10:28:04.928Z,6276.00
2019-04-09T10:29:10.501Z,5152.00
2019-04-09T10:30:08.789Z,5476.00
2019-04-09T10:31:12.656Z,5792.00
2019-04-09T10:32:07.913Z,5832.00
2019-04-09T10:33:05.149Z,5280.00
2019-04-09T10:34:05.987Z,4828.00
2019-04-09T10:35:07.861Z,4452.00
2019-04-09T10:36:06.775Z,4412.00
2019-04-09T10:37:08.834Z,4248.00
2019-04-09T10:38:06.521Z,4760.00
2019-04-09T10:39:05.513Z,5520.00
2019-04-09T10:40:08.545Z,6980.00
2019-04-09T10:41:16.570Z,7740.00
2019-04-09T10:42:07.933Z,8944.00
2019-04-09T10:43:07.177Z,11744.00
2019-04-09T10:44:05.652Z,14340.00
2019-04-09T10:45:06.055Z,16012.00
2019-04-09T10:46:05.735Z,18592.00
2019-04-09T10:47:07.565Z,21088.00
2019-04-09T10:48:07.181Z,24640.00
2019-04-09T10:49:06.036Z,26432.00
2019-04-09T10:50:05.935Z,15184.00
2019-04-09T10:51:07.530Z,11392.00
2019-04-09T10:52:06.069Z,10652.00
2019-04-09T10:53:07.627Z,10456.00
2019-04-09T10:54:06.809Z,10492.00
2019-04-09T10:55:06.144Z,10008.00
2019-04-09T10:56:06.178Z,10528.00
2019-04-09T10:57:09.074Z,11488.00
2019-04-09T10:58:06.886Z,12372.00
2019-04-09T10:59:06.744Z,12604.00
2019-04-09T11:00:07.881Z,11848.00
2019-04-09T11:01:09.796Z,11024.00
2019-04-09T11:02:06.971Z,11108.00
2019-04-09T11:03:06.566Z,11656.00
2019-04-09T11:04:09.747Z,11152.00
2019-04-09T11:05:07.637Z,10616.00
2019-04-09T11:06:07.586Z,10372.00
2019-04-09T11:07:07.620Z,9360.00
2019-04-09T11:08:08.093Z,8600.00
2019-04-09T11:09:07.687Z,9056.00
2019-04-09T11:10:19.496Z,8904.00
2019-04-09T11:11:06.897Z,9164.00
2019-04-09T11:12:06.945Z,11180.00
2019-04-09T11:13:08.046Z,13368.00
2019-04-09T11:14:09.448Z,15180.00
2019-04-09T11:15:07.354Z,13416.00
2019-04-09T11:16:07.156Z,13288.00
2019-04-09T11:17:07.165Z,13596.00
2019-04-09T11:18:12.476Z,12492.00
2019-04-09T11:19:07.706Z,9760.00
2019-04-09T11:20:07.293Z,9980.00
2019-04-09T11:21:10.130Z,11708.00
2019-04-09T11:22:07.402Z,13568.00
2019-04-09T11:23:07.454Z,15956.00
2019-04-09T11:24:07.480Z,14264.00
2019-04-09T11:25:08.268Z,10780.00
2019-04-09T11:26:12.004Z,9616.00
2019-04-09T11:27:07.604Z,9736.00
2019-04-09T11:28:08.388Z,9512.00
2019-04-09T11:29:08.027Z,9400.00
2019-04-09T11:30:07.885Z,9976.00
2019-04-09T11:31:08.407Z,10988.00
2019-04-09T11:32:10.967Z,13548.00
2019-04-09T11:33:08.749Z,15892.00
2019-04-09T11:34:08.919Z,15732.00
2019-04-09T11:35:08.145Z,14832.00
2019-04-09T11:36:08.458Z,14956.00
2019-04-09T11:37:08.094Z,14296.00
2019-04-09T11:38:08.138Z,13188.00
2019-04-09T11:39:08.143Z,13796.00
2019-04-09T11:40:09.218Z,13612.00
2019-04-09T11:41:08.453Z,10292.00
2019-04-09T11:42:09.481Z,8104.00
2019-04-09T11:43:08.343Z,6316.00
2019-04-09T11:44:08.949Z,6356.00
2019-04-09T11:45:09.192Z,6976.00
2019-04-09T11:46:08.499Z,7224.00
2019-04-09T11:47:09.136Z,10092.00
2019-04-09T11:48:09.693Z,12332.00
2019-04-09T11:49:08.640Z,13396.00
2019-04-09T11:50:09.641Z,12908.00
2019-04-09T11:51:09.693Z,13064.00
2019-04-09T11:52:08.813Z,10972.00
2019-04-09T11:53:08.846Z,8760.00
2019-04-09T11:54:08.881Z,6968.00
2019-04-09T11:55:09.255Z,8168.00
2019-04-09T11:56:09.476Z,11928.00
2019-04-09T11:57:09.009Z,12948.00
2019-04-09T11:58:09.068Z,13540.00
2019-04-09T11:59:09.107Z,13916.00
2019-04-09T12:00:09.934Z,15340.00
2019-04-09T12:01:10.217Z,13936.00
2019-04-09T12:02:12.616Z,16284.00
2019-04-09T12:03:09.279Z,13916.00
2019-04-09T12:04:09.687Z,16908.00
2019-04-09T12:05:10.026Z,20928.00
2019-04-09T12:06:09.434Z,18848.00
2019-04-09T12:07:09.536Z,17952.00
2019-04-09T12:08:10.568Z,16348.00
2019-04-09T12:09:09.557Z,17148.00
2019-04-09T12:10:10.104Z,16520.00
2019-04-09T12:11:09.653Z,15432.00
2019-04-09T12:12:09.693Z,16496.00
2019-04-09T12:13:10.583Z,17824.00
2019-04-09T12:14:10.773Z,17632.00
2019-04-09T12:15:10.732Z,17132.00
2019-04-09T12:16:10.048Z,19584.00
2019-04-09T12:17:10.207Z,21472.00
2019-04-09T12:18:09.972Z,16624.00
2019-04-09T12:19:10.554Z,20480.00
2019-04-09T12:20:12.807Z,24288.00
2019-04-09T12:21:11.188Z,24704.00
2019-04-09T12:22:10.157Z,21088.00
2019-04-09T12:23:10.246Z,19168.00
2019-04-09T12:24:11.121Z,15940.00
2019-04-09T12:25:11.381Z,17220.00
2019-04-09T12:26:10.582Z,14924.00
2019-04-09T12:27:14.009Z,13640.00
2019-04-09T12:28:10.944Z,12708.00
2019-04-09T12:29:16.744Z,11240.00
2019-04-09T12:30:11.092Z,11688.00
2019-04-09T12:31:10.580Z,12320.00
2019-04-09T12:32:18.031Z,12256.00
2019-04-09T12:33:11.390Z,10796.00
2019-04-09T12:34:10.732Z,11512.00
2019-04-09T12:35:10.879Z,10428.00
2019-04-09T12:36:10.916Z,10452.00
2019-04-09T12:37:10.849Z,11256.00
2019-04-09T12:38:11.070Z,10940.00
2019-04-09T12:39:11.693Z,11968.00
2019-04-09T12:40:10.981Z,13000.00
2019-04-09T12:41:11.158Z,13676.00
2019-04-09T12:42:12.206Z,11732.00
2019-04-09T12:43:11.156Z,11980.00
2019-04-09T12:44:12.092Z,13584.00
2019-04-09T12:45:12.125Z,13544.00
2019-04-09T12:46:11.513Z,12428.00
2019-04-09T12:47:11.298Z,11664.00
2019-04-09T12:48:11.365Z,9112.00
2019-04-09T12:49:12.289Z,8840.00
2019-04-09T12:50:11.468Z,11356.00
2019-04-09T12:51:11.513Z,20512.00
2019-04-09T12:52:11.531Z,24768.00
2019-04-09T12:53:12.184Z,25280.00
2019-04-09T12:54:11.621Z,26112.00
2019-04-09T12:55:12.502Z,27072.00